Time;durP1;ratioP1;P1;durP2;ratioP2;P2;SDS_P1;SDS_P2;PMS_P1;PMS_P2;Temp;Humidity;BMP_temperature;BMP_pressure;BME280_temperature;BME280_humidity;BME280_pressure;Samples;Min_cycle;Max_cycle;Signal;HPM_P1;HPM_P2
2022/12/17 13:10:47;;;;;;;12.27;6.90;;;14.50;52.80;;;;;;10454088;28;20057;-26
2022/12/17 13:15:54;;;;;;;11.80;6.75;;;14.60;52.40;;;;;;10457879;28;20477;-28
2022/12/17 13:20:59;;;;;;;8.63;5.80;;;14.70;52.20;;;;;;10455456;28;20137;-29
2022/12/17 13:26:15;;;;;;;6.03;4.20;;;15.00;51.90;;;;;;10445206;28;20132;-27
2022/12/17 13:31:21;;;;;;;8.55;3.92;;;15.00;51.90;;;;;;10430459;28;20569;-29
2022/12/17 13:36:29;;;;;;;5.60;3.40;;;15.00;52.10;;;;;;10425500;28;20041;-28
2022/12/17 13:41:34;;;;;;;12.45;4.47;;;15.10;52.10;;;;;;10426732;28;20406;-25
2022/12/17 13:46:43;;;;;;;5.35;3.50;;;15.10;52.60;;;;;;10429631;28;20512;-27
2022/12/17 13:51:45;;;;;;;7.50;3.25;;;15.20;52.10;;;;;;10428652;28;20946;-30
2022/12/17 13:56:48;;;;;;;4.97;3.20;;;15.20;52.20;;;;;;10443692;28;20045;-28
2022/12/17 14:01:53;;;;;;;5.03;2.70;;;15.20;52.20;;;;;;10447819;28;20082;-29
2022/12/17 14:06:57;;;;;;;5.05;2.90;;;15.20;52.20;;;;;;10434163;28;20459;-28
2022/12/17 14:12:22;;;;;;;5.97;3.15;;;15.30;52.20;;;;;;10429783;28;20060;-31
2022/12/17 14:17:26;;;;;;;4.10;2.67;;;15.30;52.10;;;;;;10428919;28;20079;-29
2022/12/17 14:22:34;;;;;;;5.90;3.25;;;15.30;52.30;;;;;;10427641;28;20057;-28
2022/12/17 14:27:37;;;;;;;7.25;3.10;;;15.30;52.30;;;;;;10422140;28;20062;-26
2022/12/17 14:32:43;;;;;;;3.78;2.85;;;15.30;52.20;;;;;;10427016;28;20049;-28
2022/12/17 14:37:47;;;;;;;6.30;2.80;;;15.40;52.20;;;;;;10442287;28;20060;-28
2022/12/17 14:42:51;;;;;;;6.40;2.67;;;15.40;52.20;;;;;;10449220;28;20052;-28
2022/12/17 14:47:54;;;;;;;5.22;2.53;;;15.40;52.20;;;;;;10427785;28;20063;-29
2022/12/17 14:52:58;;;;;;;6.72;2.45;;;15.40;52.20;;;;;;10462927;28;20083;-27
2022/12/17 14:58:15;;;;;;;6.63;3.38;;;15.40;52.20;;;;;;10442114;28;20084;-26
2022/12/17 15:03:24;;;;;;;3.72;2.80;;;15.40;52.30;;;;;;10448024;28;20077;-30
2022/12/17 15:08:27;;;;;;;5.35;2.63;;;15.40;52.40;;;;;;10438743;28;20099;-30
2022/12/17 15:13:31;;;;;;;5.00;2.78;;;15.40;52.40;;;;;;10440518;28;20061;-28
2022/12/17 15:18:34;;;;;;;6.25;2.50;;;15.40;52.40;;;;;;10458146;28;20052;-27
2022/12/17 15:23:41;;;;;;;5.05;2.50;;;15.40;52.40;;;;;;10442182;28;20098;-29
2022/12/17 15:28:45;;;;;;;5.28;2.88;;;15.40;52.50;;;;;;10431401;28;20359;-27
2022/12/17 15:33:47;;;;;;;7.13;2.70;;;15.40;52.50;;;;;;10444250;28;20055;-29
2022/12/17 15:38:49;;;;;;;5.00;2.77;;;15.40;52.50;;;;;;10442670;28;20102;-31
2022/12/17 15:43:53;;;;;;;5.53;2.83;;;15.40;52.60;;;;;;10434143;28;20468;-30
2022/12/17 15:48:56;;;;;;;8.43;3.25;;;15.40;52.60;;;;;;10457000;28;20091;-27
2022/12/17 15:53:57;;;;;;;4.68;2.90;;;15.40;52.50;;;;;;10465320;28;20405;-26
2022/12/17 15:59:01;;;;;;;8.20;5.00;;;15.40;52.60;;;;;;10437952;28;20083;-28
2022/12/17 16:04:03;;;;;;;10.25;5.60;;;15.40;52.80;;;;;;10449628;28;20514;-30
2022/12/17 16:09:05;;;;;;;8.57;4.28;;;15.40;52.90;;;;;;10444844;28;20053;-27
2022/12/17 16:14:09;;;;;;;7.60;4.03;;;15.50;52.90;;;;;;10445984;28;20076;-30
2022/12/17 16:19:11;;;;;;;7.15;3.60;;;15.50;53.00;;;;;;10440515;28;20053;-28
2022/12/17 16:24:13;;;;;;;4.30;3.05;;;15.50;53.00;;;;;;10454444;28;20055;-29
2022/12/17 16:29:17;;;;;;;5.77;4.07;;;15.60;53.00;;;;;;10448485;28;20111;-27
2022/12/17 16:34:19;;;;;;;4.93;3.13;;;15.60;53.10;;;;;;10436878;28;20057;-28
2022/12/17 16:39:21;;;;;;;8.48;4.40;;;15.50;53.00;;;;;;10448329;28;20048;-26
2022/12/17 16:44:24;;;;;;;6.25;3.40;;;15.60;53.20;;;;;;10450642;28;20409;-27
2022/12/17 16:49:27;;;;;;;6.40;3.85;;;15.60;53.20;;;;;;10435718;28;20064;-26
2022/12/17 16:54:31;;;;;;;7.35;4.20;;;15.60;53.20;;;;;;10439532;28;20092;-27
2022/12/17 16:59:34;;;;;;;6.07;4.22;;;15.60;53.10;;;;;;10443222;28;20053;-27
2022/12/17 17:04:36;;;;;;;6.82;3.92;;;15.60;53.60;;;;;;10445267;28;20598;-28
2022/12/17 17:09:39;;;;;;;18.83;9.80;;;15.60;53.00;;;;;;10446905;28;20052;-27
2022/12/17 17:14:43;;;;;;;17.27;9.07;;;15.50;53.20;;;;;;10432734;28;20053;-29
2022/12/17 17:19:45;;;;;;;10.23;5.55;;;15.40;53.10;;;;;;10434052;28;20431;-28
2022/12/17 17:24:47;;;;;;;12.70;6.00;;;15.60;53.00;;;;;;10432610;28;20055;-28
2022/12/17 17:29:50;;;;;;;13.77;7.30;;;15.60;53.60;;;;;;10448971;28;20053;-29
2022/12/17 17:34:52;;;;;;;12.70;5.93;;;15.60;53.10;;;;;;10440603;28;20497;-30
2022/12/17 17:39:54;;;;;;;12.25;7.85;;;15.60;53.20;;;;;;10452284;28;20090;-30
2022/12/17 17:44:57;;;;;;;16.27;8.43;;;15.60;53.20;;;;;;10445086;28;20045;-27
2022/12/17 17:49:59;;;;;;;17.98;10.50;;;15.60;53.40;;;;;;10453827;28;20041;-28
2022/12/17 17:55:02;;;;;;;17.77;9.73;;;15.60;53.40;;;;;;10439902;28;20053;-27
2022/12/17 18:00:07;;;;;;;14.70;8.63;;;15.60;53.50;;;;;;10440316;28;20052;-27
2022/12/17 18:05:09;;;;;;;19.33;10.55;;;15.60;53.60;;;;;;10451283;28;20479;-32
2022/12/17 18:10:11;;;;;;;11.82;7.57;;;15.60;53.60;;;;;;10437390;28;20136;-29
2022/12/17 18:15:14;;;;;;;26.27;14.67;;;15.60;53.80;;;;;;10449153;28;20126;-27
2022/12/17 18:20:17;;;;;;;36.25;18.98;;;15.50;54.00;;;;;;10446072;28;20090;-28
2022/12/17 18:25:19;;;;;;;37.00;19.50;;;15.40;54.70;;;;;;10440480;28;20077;-27
2022/12/17 18:30:23;;;;;;;39.03;21.45;;;15.50;54.20;;;;;;10454032;28;20681;-26
2022/12/17 18:35:26;;;;;;;45.38;23.13;;;15.40;54.10;;;;;;10443960;28;20099;-28
2022/12/17 18:40:28;;;;;;;45.85;22.75;;;15.50;54.20;;;;;;10448855;28;20149;-28
2022/12/17 18:45:37;;;;;;;52.90;25.07;;;15.40;54.10;;;;;;10447067;28;20072;-28
2022/12/17 18:50:39;;;;;;;43.50;22.55;;;15.40;54.10;;;;;;10435384;28;20123;-28
2022/12/17 18:55:40;;;;;;;39.97;21.53;;;15.40;54.10;;;;;;10429543;28;20510;-29
2022/12/17 19:00:44;;;;;;;38.77;21.50;;;15.30;54.20;;;;;;10433343;28;20855;-27
2022/12/17 19:05:46;;;;;;;54.47;25.55;;;15.40;54.10;;;;;;10435299;28;20049;-31
2022/12/17 19:10:48;;;;;;;52.03;25.75;;;15.40;54.20;;;;;;10427263;28;20440;-27
2022/12/17 19:15:51;;;;;;;27.93;13.60;;;15.40;54.10;;;;;;10454854;28;20052;-28
2022/12/17 19:20:56;;;;;;;21.38;11.38;;;15.50;54.00;;;;;;10453884;28;20061;-27
2022/12/17 19:26:06;;;;;;;25.58;12.85;;;15.50;54.00;;;;;;10444293;28;20051;-30
2022/12/17 19:31:10;;;;;;;19.92;9.88;;;15.50;54.00;;;;;;10450877;28;20048;-30
2022/12/17 19:36:14;;;;;;;23.35;11.70;;;15.60;54.10;;;;;;10445690;28;20094;-29
2022/12/17 19:41:17;;;;;;;16.50;9.07;;;15.50;54.00;;;;;;10438039;28;20084;-28
2022/12/17 19:46:21;;;;;;;23.25;10.52;;;15.60;54.00;;;;;;10448660;28;20063;-27
2022/12/17 19:51:25;;;;;;;26.30;13.00;;;15.60;54.00;;;;;;10456748;28;20102;-29
2022/12/17 19:56:29;;;;;;;16.58;8.73;;;15.60;54.00;;;;;;10461496;28;20053;-28
2022/12/17 20:01:35;;;;;;;11.20;6.78;;;15.60;54.00;;;;;;10445987;28;20480;-25
2022/12/17 20:06:37;;;;;;;10.73;6.75;;;15.60;54.00;;;;;;10442277;28;20044;-28
2022/12/17 20:11:39;;;;;;;17.60;7.18;;;15.60;53.90;;;;;;10436684;28;20544;-27
2022/12/17 20:16:45;;;;;;;15.85;8.02;;;15.60;54.00;;;;;;10436392;28;20085;-28
2022/12/17 20:21:48;;;;;;;16.70;6.93;;;15.60;54.00;;;;;;10458942;28;20045;-26
2022/12/17 20:26:51;;;;;;;21.50;6.85;;;15.60;54.10;;;;;;10434804;28;20041;-29
2022/12/17 20:31:55;;;;;;;17.15;7.90;;;15.60;53.80;;;;;;10444435;28;20041;-27
2022/12/17 20:36:57;;;;;;;15.82;7.85;;;15.60;53.80;;;;;;10447965;28;20189;-29
2022/12/17 20:41:59;;;;;;;12.77;7.60;;;15.60;53.60;;;;;;10450678;28;20060;-26
2022/12/17 20:47:02;;;;;;;14.63;7.90;;;15.60;53.50;;;;;;10455616;28;20061;-31
2022/12/17 20:52:04;;;;;;;18.85;8.00;;;15.60;53.50;;;;;;10462523;28;20495;-29
2022/12/17 20:57:06;;;;;;;11.15;7.25;;;15.60;53.40;;;;;;10462084;28;20135;-26
2022/12/17 21:02:10;;;;;;;17.73;8.30;;;15.60;53.30;;;;;;10439807;28;20041;-28
2022/12/17 21:07:12;;;;;;;17.23;8.07;;;15.60;53.20;;;;;;10424305;28;20489;-26
2022/12/17 21:12:14;;;;;;;16.67;7.87;;;15.60;53.20;;;;;;10449601;28;20056;-26
2022/12/17 21:17:17;;;;;;;18.03;8.47;;;15.60;53.20;;;;;;10448902;28;20049;-33
2022/12/17 21:22:19;;;;;;;14.63;7.93;;;15.60;53.10;;;;;;10448425;28;20110;-27
2022/12/17 21:27:21;;;;;;;12.43;7.57;;;15.60;53.10;;;;;;10448544;28;20044;-27
2022/12/17 21:32:25;;;;;;;14.30;7.35;;;15.60;53.00;;;;;;10445019;28;20080;-24
2022/12/17 21:37:27;;;;;;;14.23;7.72;;;15.60;53.00;;;;;;10457332;28;20559;-26
2022/12/17 21:47:49;;;;;;;12.48;7.78;;;15.50;53.00;;;;;;10445726;28;20052;-27
2022/12/17 21:52:52;;;;;;;18.92;9.23;;;15.60;53.00;;;;;;10458995;28;20044;-30
2022/12/17 21:57:54;;;;;;;15.98;6.93;;;15.60;52.90;;;;;;10431526;28;20383;-28
2022/12/17 22:02:57;;;;;;;12.57;7.00;;;15.50;52.80;;;;;;10440885;28;20049;-26
2022/12/17 22:07:59;;;;;;;17.20;7.70;;;15.60;52.70;;;;;;10437454;28;20052;-28
2022/12/17 22:18:22;;;;;;;13.38;7.70;;;15.50;52.60;;;;;;10446181;28;20048;-29
2022/12/17 22:23:24;;;;;;;15.32;7.63;;;15.50;52.70;;;;;;10451648;28;20095;-27
2022/12/17 22:28:26;;;;;;;16.57;9.63;;;15.50;52.60;;;;;;10434165;28;20055;-27
2022/12/17 22:33:29;;;;;;;18.30;9.20;;;15.50;52.60;;;;;;10439764;28;20080;-27
2022/12/17 22:38:31;;;;;;;23.90;11.82;;;15.50;52.60;;;;;;10432330;28;20041;-28
2022/12/17 22:43:33;;;;;;;19.97;11.23;;;15.50;52.60;;;;;;10443739;28;20044;-30
2022/12/17 22:48:37;;;;;;;18.70;10.27;;;15.40;52.50;;;;;;10441233;28;20060;-28
2022/12/17 22:53:38;;;;;;;14.00;8.30;;;15.40;52.40;;;;;;10434236;28;20049;-28
2022/12/17 22:58:40;;;;;;;15.07;9.03;;;15.40;52.50;;;;;;10439171;28;20049;-27
2022/12/17 23:03:44;;;;;;;15.67;9.43;;;15.30;52.50;;;;;;10446758;28;20080;-26
2022/12/17 23:08:45;;;;;;;19.05;10.27;;;15.30;52.40;;;;;;10445925;28;20483;-29
2022/12/17 23:13:47;;;;;;;25.50;12.73;;;15.20;52.40;;;;;;10439429;28;20134;-29
2022/12/17 23:18:52;;;;;;;21.73;11.33;;;15.20;52.40;;;;;;10447719;28;20106;-31
2022/12/17 23:23:55;;;;;;;21.83;10.27;;;15.20;52.40;;;;;;10428516;28;20144;-27
2022/12/17 23:29:00;;;;;;;19.92;10.10;;;15.20;52.40;;;;;;10449482;28;20139;-27
2022/12/17 23:34:04;;;;;;;18.63;10.27;;;15.20;52.40;;;;;;10453768;28;20696;-28
2022/12/17 23:39:06;;;;;;;19.55;10.93;;;15.20;52.50;;;;;;10446638;28;20057;-27
2022/12/17 23:44:08;;;;;;;16.45;10.38;;;15.10;52.30;;;;;;10462358;28;20150;-26
2022/12/17 23:49:13;;;;;;;21.47;10.87;;;15.10;52.30;;;;;;10459032;28;20768;-27
2022/12/17 23:54:15;;;;;;;27.35;12.88;;;15.10;52.30;;;;;;10451429;28;20045;-27
2022/12/17 23:59:17;;;;;;;24.30;13.60;;;15.10;52.20;;;;;;10462097;28;20053;-31
